Airfield :
LOGIN :

Register | Disclaimer

   EN    FR    IT 

 










Legend :    VFR   Marginal VFR   IFR   Intensive IFR   Very Intensive IFR
Visi :
Ceiling :
>= 8 km
>= 3000ft
5 to 8 km
1000 to 3000 ft
1500m to 5 km
500 to 1000 ft
800 to 1500m
200 to 500 ft
< 800m
< 200 ft
Symbols :   Thunderstorms  Fog  Heavy snow  Heavy precipitations  Wind > 20 kt
SIGMETs :     Misc.  Thunderstorms  Icing  Turbulence  Mountain Waves  Volcanic Ashes







- Airport Elevation : 313 ft
- IATA code : LEH
- Download approach charts


LFOH - Le Havre Octeville

CURRENT METAR :
  • 201930Z AUTO 31007KT 9999 FEW009 18/16 Q1016

EXPIRED METARs :
  • 201900Z AUTO 32005KT CAVOK 18/16 Q1016
  • 201830Z AUTO 35006KT 320V020 CAVOK 19/16 Q1015
  • 201800Z AUTO 31010KT 280V340 CAVOK 20/15 Q1015 BECMG 21008KT
  • 201730Z AUTO 30010KT CAVOK 21/15 Q1014 BECMG 21008KT
  • 201700Z AUTO 30007KT 270V330 CAVOK 21/15 Q1014 NOSIG

TAF TAF LFOH
Valid from the 20 at 12:00 until the 21 at 12:00 UTC


201100Z 2012/2112 21008KT 9999 BKN030
PROB40
TEMPO 2103/2107 BKN005
ATIS : +33 2 35 54 64 93
No reported NOTAMs for that airfield.



MET'MAP, your aeronautical weather chart ! - Copyright ORBIFLY December 2007 - Disclaimer

ORBIFLY MET'MAP TEAM :

Programming & Development : Alexandra Zaïnal
Concept & Development : Baudouin d'Aumeries
Co-Development & Prog : Marc-Olivier Méhu
Technical & hardware support : Manuel Goepfert

Contact : metmap@orbifly.com




SOURCES & CREDITS :

   NOAA